Latest Weather Observations for Truscott

IDW60801

Issued at 9:02 am WST Monday 2 March 2015 (issued every 30 minutes, with the page automatically refreshed every 10 minutes)

About weather observations | Map of weather stations | Latest weather observations for WA | Other Formats
Station Details ID: 001020 Name: TRUSCOTT Lat: -14.09 Lon: 126.39 Height: 51.0 m
Data from the previous 72 hours. | See also: Recent months at Truscott
Date/Time
WST
Temp
°C
App
Temp
°C
Dew
Point
Rel
Hum
%
Delta-T
°C
Wind Press
QNH
hPa
Press
MSL
hPa
Rain
since 9 am
mm
Dir
 
Spd
km/h
Gust
km/h
Spd
kts
Gust
kts
02/09:00am 29.2 32.1 24.5 76 3.3 SW 17 17 9 9 1007.0 1006.9 16.8
02/08:30am 29.0 31.6 24.0 74 3.5 SW 17 20 9 11 1007.0 - 16.8
02/08:00am 29.0 32.6 25.0 79 2.8 WSW 15 - 8 - 1007.0 - 16.8
02/07:30am 28.0 33.0 26.0 89 1.4 SW 11 - 6 - 1007.0 - 16.8
02/07:00am 27.0 32.4 26.0 94 0.7 SW 9 11 5 6 1006.0 - 16.8
02/06:30am 26.0 30.7 25.0 94 0.7 SW 9 - 5 - 1006.0 - 16.8
02/06:00am 25.8 30.9 24.9 95 0.6 SSW 7 7 4 4 1006.0 1005.9 16.8
02/05:30am 26.0 31.1 25.0 94 0.7 SW 7 - 4 - 1006.0 - 16.8
02/05:00am 25.0 30.1 25.0 100 0.0 SSE 7 - 4 - 1006.0 - 16.8
02/04:30am 26.0 31.3 25.0 94 0.7 S 6 - 3 - 1005.0 - 16.8
02/04:00am 26.0 31.1 25.0 94 0.7 SW 7 - 4 - 1005.0 - 16.8
02/03:30am 26.0 29.8 24.0 89 1.4 WSW 11 - 6 - 1004.0 - 16.8
02/03:00am 26.1 30.3 24.1 89 1.4 W 9 - 5 - 1004.0 1004.3 16.8
02/02:30am 26.0 30.1 24.0 89 1.4 WSW 9 - 5 - 1005.0 - 16.8
02/02:00am 26.0 30.7 24.0 89 1.4 WSW 6 - 3 - 1005.0 - 16.8
02/01:30am 26.0 30.5 24.0 89 1.4 WSW 7 - 4 - 1005.0 - 16.8
02/01:00am 26.0 30.1 24.0 89 1.4 WSW 9 - 5 - 1006.0 - 16.8
02/12:30am 26.0 30.5 24.0 89 1.4 SW 7 - 4 - 1006.0 - 16.8
02/12:00am 26.2 30.8 24.2 89 1.4 WSW 7 9 4 5 1006.0 1006.1 16.8
 
Date/Time
WST
Temp
°C
App
Temp
°C
Dew
Point
Rel
Hum
%
Delta-T
°C
Wind Press
QNH
hPa
Press
MSL
hPa
Rain
since 9 am
mm
Dir
 
Spd
km/h
Gust
km/h
Spd
kts
Gust
kts
01/11:30pm 26.0 30.1 24.0 89 1.4 SSW 9 - 5 - 1006.0 - 16.8
01/11:00pm 26.0 31.1 25.0 94 0.7 S 7 - 4 - 1006.0 - 16.8
01/10:30pm 26.0 31.3 25.0 94 0.7 WNW 6 - 3 - 1007.0 - 16.8
01/10:00pm 27.0 31.1 24.0 83 2.1 SW 9 - 5 - 1007.0 - 16.8
01/09:30pm 27.0 31.5 24.0 83 2.1 SW 7 - 4 - 1007.0 - 16.8
01/09:00pm 26.7 30.8 24.5 88 1.5 SSW 11 - 6 - 1007.0 1006.6 16.8
01/08:30pm 27.0 31.4 25.0 89 1.4 SSW 11 - 6 - 1007.0 - 16.8
01/08:00pm 27.0 31.4 25.0 89 1.4 SW 11 - 6 - 1006.0 - 16.8
01/07:30pm 27.0 31.6 26.0 94 0.7 SW 13 - 7 - 1006.0 - 16.8
01/07:00pm 27.0 31.9 27.0 100 0.0 SSW 15 - 8 - 1006.0 - 16.8
01/06:30pm 27.0 32.3 27.0 100 0.0 WSW 13 - 7 - 1006.0 - 16.8
01/06:20pm 27.0 32.3 27.0 100 0.0 SW 13 - 7 - 1005.0 - 16.8
01/06:19pm 27.0 32.3 27.0 100 0.0 SW 13 - 7 - 1005.0 - 16.8
01/06:08pm 26.0 30.2 26.0 100 0.0 SW 15 - 8 - 1005.0 - 16.4
01/06:00pm 25.6 29.0 25.3 98 0.2 SSW 17 20 9 11 1005.0 1005.1 15.8
01/05:35pm 25.0 26.1 23.0 89 1.4 S 22 - 12 - 1006.0 - 1.8
01/05:30pm 26.0 28.0 24.0 89 1.4 S 20 - 11 - 1006.0 - 0.2
01/05:00pm 30.0 33.6 25.0 74 3.5 W 15 - 8 - 1005.0 - 0.0
01/04:30pm 30.0 32.0 24.0 70 4.2 W 20 - 11 - 1005.0 - 0.0
01/04:00pm 30.0 33.0 24.0 70 4.2 W 15 - 8 - 1005.0 - 0.0
01/03:56pm 30.0 33.6 25.0 74 3.5 WSW 15 - 8 - 1005.0 - 0.0
01/03:30pm 30.0 31.7 24.0 70 4.2 WSW 22 - 12 - 1003.0 - 0.0
01/03:00pm 31.3 32.4 24.9 69 4.5 W 28 - 15 - 1004.0 1003.7 0.0
01/02:30pm 31.0 31.2 22.0 58 6.1 W 24 - 13 - 1004.0 - 0.0
01/02:00pm 32.0 33.3 24.0 62 5.6 W 24 - 13 - 1004.0 - 0.0
01/01:30pm 33.0 35.7 25.0 63 5.7 W 20 - 11 - 1004.0 - 0.0
01/01:00pm 32.0 34.3 25.0 66 4.9 WNW 22 - 12 - 1005.0 - 0.0
01/12:30pm 32.0 34.7 25.0 66 4.9 W 20 - 11 - 1005.0 - 0.0
01/12:00pm 32.0 34.4 24.3 63 5.4 W 19 - 10 - 1006.0 1005.4 0.0
01/11:30am 33.0 36.2 25.0 63 5.7 W 17 - 9 - 1006.0 - 0.0
01/11:00am 32.0 35.2 25.0 66 4.9 W 17 - 9 - 1007.0 - 0.0
01/10:30am 32.0 34.2 24.0 62 5.6 SSW 19 - 10 - 1007.0 - 0.0
01/10:00am 31.0 33.6 24.0 66 4.9 WSW 17 - 9 - 1008.0 - 0.0
01/09:30am 31.0 33.6 24.0 66 4.9 SW 17 - 9 - 1008.0 - 0.0
01/09:00am 31.0 34.3 25.1 71 4.2 SW 17 - 9 - 1008.0 1007.7 0.0
01/08:30am 30.0 33.6 25.0 74 3.5 WSW 15 - 8 - 1008.0 - 0.0
01/08:00am 29.0 32.6 25.0 79 2.8 SW 15 - 8 - 1008.0 - 0.0
01/07:30am 29.0 33.0 25.0 79 2.8 SW 13 - 7 - 1008.0 - 0.0
01/07:00am 27.0 31.7 25.0 89 1.4 SW 9 - 5 - 1007.0 - 0.0
01/06:30am 26.0 30.7 25.0 94 0.7 SW 9 - 5 - 1007.0 - 0.0
01/06:00am 25.8 30.2 24.4 92 1.0 SW 9 - 5 - 1007.0 1007.0 0.0
01/05:30am 26.0 30.7 25.0 94 0.7 SW 9 - 5 - 1006.0 - 0.0
01/05:00am 25.0 29.5 24.0 94 0.7 SSW 7 - 4 - 1006.0 - 0.0
01/04:56am 25.0 29.5 24.0 94 0.7 SSW 7 - 4 - 1006.0 - 0.0
01/04:44am 25.0 29.1 24.0 94 0.7 SSW 9 - 5 - 1006.0 - 0.0
01/04:30am 25.0 29.5 24.0 94 0.7 SW 7 - 4 - 1006.0 - 0.0
01/04:00am 25.0 28.9 23.0 89 1.4 SW 7 - 4 - 1005.0 - 0.0
01/03:30am 26.0 29.9 23.0 83 2.0 SW 7 - 4 - 1005.0 - 0.0
01/03:00am 25.6 29.4 22.7 84 2.0 SW 7 - 4 - 1005.0 1004.7 0.0
01/02:30am 25.0 28.9 23.0 89 1.4 SSW 7 - 4 - 1005.0 - 0.0
01/02:00am 25.0 28.6 23.0 89 1.4 SW 9 - 5 - 1005.0 - 0.0
01/01:30am 25.0 28.6 23.0 89 1.4 S 9 - 5 - 1006.0 - 0.0
01/01:00am 26.0 30.1 23.0 83 2.0 SSW 6 - 3 - 1006.0 - 0.0
01/12:30am 26.0 29.9 23.0 83 2.0 WSW 7 - 4 - 1006.0 - 0.0
01/12:00am 25.0 29.2 22.5 86 1.7 SSE 4 - 2 - 1006.0 1006.3 0.0
 
Date/Time
WST
Temp
°C
App
Temp
°C
Dew
Point
Rel
Hum
%
Delta-T
°C
Wind Press
QNH
hPa
Press
MSL
hPa
Rain
since 9 am
mm
Dir
 
Spd
km/h
Gust
km/h
Spd
kts
Gust
kts
28/11:30pm 26.0 29.4 22.0 78 2.7 SW 7 - 4 - 1006.0 - 0.0
28/11:00pm 25.0 30.5 24.0 94 0.7 S 2 - 1 - 1007.0 - 0.0
28/10:30pm 25.0 29.7 24.0 94 0.7 SSE 6 - 3 - 1007.0 - 0.0
28/10:00pm 25.0 28.9 23.0 89 1.4 S 7 - 4 - 1007.0 - 0.0
28/09:30pm 25.0 29.1 23.0 89 1.4 SE 6 - 3 - 1007.0 - 0.0
28/09:00pm 25.4 29.4 23.1 87 1.6 S 7 - 4 - 1007.0 1007.2 0.0
28/08:30pm 25.0 28.2 23.0 89 1.4 SSW 11 - 6 - 1007.0 - 0.0
28/08:00pm 25.0 28.8 24.0 94 0.7 SSW 11 - 6 - 1007.0 - 0.0
28/07:30pm 26.0 29.4 24.0 89 1.4 SSW 13 - 7 - 1007.0 - 0.0
28/07:00pm 25.0 27.4 23.0 89 1.4 SW 15 - 8 - 1007.0 - 0.0
28/06:30pm 27.0 26.8 22.0 74 3.4 S 26 - 14 - 1007.0 - 0.0
28/06:00pm 29.8 32.3 24.4 73 3.8 WSW 19 - 10 - 1006.0 1005.8 0.0
28/05:30pm 30.0 33.0 24.0 70 4.2 WSW 15 - 8 - 1006.0 - 0.0
28/05:00pm 30.0 33.9 26.0 79 2.8 W 17 - 9 - 1004.0 - 0.0
28/04:30pm 30.0 33.2 25.0 74 3.5 W 17 - 9 - 1004.0 - 0.0
28/04:00pm 31.0 33.7 25.0 70 4.2 WNW 20 - 11 - 1004.0 - 0.0
28/03:30pm 31.0 32.7 24.0 66 4.9 WNW 22 - 12 - 1004.0 - 0.0
28/03:00pm 31.3 33.0 23.4 63 5.5 NW 20 - 11 - 1004.0 1003.7 0.0
28/02:30pm 32.0 34.8 25.0 66 4.9 WNW 19 - 10 - 1004.0 - 0.0
28/02:00pm 33.0 35.6 24.0 59 6.3 W 17 - 9 - 1005.0 - 0.0
28/01:30pm 32.0 34.0 23.0 59 6.2 W 17 - 9 - 1005.0 - 0.0
28/01:00pm 33.0 35.0 23.0 55 6.9 W 17 - 9 - 1005.0 - 0.0
28/12:30pm 32.0 34.0 24.0 62 5.6 WNW 20 - 11 - 1006.0 - 0.0
28/12:00pm 32.4 34.4 23.6 59 6.1 W 19 - 10 - 1007.0 1006.6 0.0
28/11:30am 32.0 34.4 23.0 59 6.2 W 15 - 8 - 1007.0 - 0.0
28/11:00am 32.0 34.0 23.0 59 6.2 WNW 17 - 9 - 1007.0 - 0.0
28/10:30am 32.0 36.0 25.0 66 4.9 W 13 - 7 - 1008.0 - 0.0
28/10:00am 31.0 34.6 25.0 70 4.2 WNW 15 - 8 - 1008.0 - 0.0
28/09:30am 31.0 34.6 25.0 70 4.2 W 15 - 8 - 1008.0 - 0.0
28/09:18am 31.0 35.0 25.0 70 4.2 WSW 13 - 7 - 1008.0 - 0.0
28/09:05am 31.0 35.4 25.0 70 4.2 W 11 - 6 - 1008.0 - 0.0
28/09:00am 30.3 34.7 25.1 73 3.7 W 11 - 6 - 1008.0 1007.7 0.0
28/08:30am 30.0 35.4 26.0 79 2.8 W 9 - 5 - 1008.0 - 0.0
28/08:00am 29.0 33.7 25.0 79 2.8 SW 9 - 5 - 1008.0 - 0.0
28/07:30am 29.0 34.8 26.0 84 2.1 SW 7 - 4 - 1008.0 - 0.0
28/07:00am 28.0 33.8 26.0 89 1.4 S 7 - 4 - 1008.0 - 0.0
28/06:30am 27.0 33.0 26.0 94 0.7 S 6 - 3 - 1007.0 - 0.0
28/06:00am 26.4 32.8 25.5 95 0.6 SE 2 - 1 - 1007.0 1006.8 0.0
28/05:30am 26.0 31.8 26.0 100 0.0 S 7 - 4 - 1007.0 - 0.0
28/05:00am 27.0 33.7 26.0 94 0.7 ESE 2 - 1 - 1006.0 - 0.0
28/04:30am 27.0 33.1 25.0 89 1.4 S 2 - 1 - 1006.0 - 0.0
28/04:00am 28.0 33.1 25.0 84 2.1 W 7 - 4 - 1006.0 - 0.0
28/03:30am 28.0 32.4 25.0 84 2.1 W 11 - 6 - 1005.0 - 0.0
28/03:00am 27.6 32.5 25.2 87 1.7 WNW 9 - 5 - 1006.0 1005.4 0.0
28/02:30am 28.0 33.8 26.0 89 1.4 WNW 7 - 4 - 1006.0 - 0.0
28/02:00am 27.0 32.1 25.0 89 1.4 WNW 7 - 4 - 1006.0 - 0.0
28/01:37am 28.0 32.7 25.0 84 2.1 W 9 - 5 - 1006.0 - 0.0
28/01:30am 28.0 32.7 25.0 84 2.1 W 9 - 5 - 1006.0 - 0.0
28/01:26am 28.0 32.7 25.0 84 2.1 WNW 9 - 5 - 1006.0 - 0.0
28/01:00am 28.0 33.0 26.0 89 1.4 W 11 - 6 - 1006.0 - 0.0
28/12:30am 28.0 33.4 26.0 89 1.4 W 9 - 5 - 1007.0 - 0.0
28/12:00am 27.7 33.0 25.9 90 1.3 W 9 - 5 - 1007.0 1006.6 0.0
 
Date/Time
WST
Temp
°C
App
Temp
°C
Dew
Point
Rel
Hum
%
Delta-T
°C
Wind Press
QNH
hPa
Press
MSL
hPa
Rain
since 9 am
mm
Dir
 
Spd
km/h
Gust
km/h
Spd
kts
Gust
kts
27/11:30pm 28.0 33.8 26.0 89 1.4 W 7 - 4 - 1007.0 - 0.0
27/11:00pm 28.0 33.1 25.0 84 2.1 WSW 7 - 4 - 1008.0 - 0.0
27/10:30pm 28.0 33.8 26.0 89 1.4 W 7 - 4 - 1008.0 - 0.0
27/10:00pm 28.0 33.3 25.0 84 2.1 W 6 - 3 - 1008.0 - 0.0
27/09:30pm 28.0 33.3 25.0 84 2.1 W 6 - 3 - 1008.0 - 0.0
27/09:00pm 28.3 32.9 25.3 84 2.1 WNW 11 - 6 - 1008.0 1007.5 0.0
27/08:30pm 28.0 32.4 25.0 84 2.1 WNW 11 - 6 - 1008.0 - 0.0
27/08:00pm 28.0 32.7 25.0 84 2.1 NW 9 - 5 - 1007.0 - 0.0
27/07:30pm 28.0 32.4 25.0 84 2.1 NW 11 - 6 - 1007.0 - 0.0
27/07:00pm 28.0 32.6 26.0 89 1.4 NW 13 - 7 - 1007.0 - 0.0
27/06:30pm 28.0 32.4 25.0 84 2.1 WNW 11 - 6 - 1006.0 - 0.0
27/06:00pm 27.9 33.3 25.1 85 2.0 W 6 - 3 - 1006.0 1005.7 0.0
27/05:30pm 28.0 33.1 25.0 84 2.1 WNW 7 - 4 - 1005.0 - 0.0
27/05:00pm 28.0 33.3 25.0 84 2.1 NW 6 - 3 - 1004.0 - 0.0
27/04:30pm 27.0 31.5 24.0 83 2.1 NW 7 - 4 - 1004.0 - 0.0
27/04:00pm 27.0 31.1 23.0 79 2.7 W 6 - 3 - 1004.0 - 0.0
27/03:30pm 27.0 30.9 23.0 79 2.7 S 7 - 4 - 1005.0 - 0.0
27/03:00pm 26.6 30.3 22.2 77 3.0 SSW 6 - 3 - 1005.0 1004.9 0.0
27/02:30pm 26.0 29.4 22.0 78 2.7 S 7 - 4 - 1005.0 - 0.0
27/02:00pm 26.0 29.0 22.0 78 2.7 SSW 9 - 5 - 1005.0 - 0.0
27/01:30pm 25.0 26.0 21.0 78 2.6 S 17 - 9 - 1006.0 - 0.0
27/01:00pm 27.0 27.0 21.0 69 4.0 S 22 - 12 - 1006.0 - 0.0
27/12:30pm 28.0 32.1 24.0 79 2.8 WNW 9 - 5 - 1006.0 - 0.0
27/12:00pm 29.1 31.8 23.5 72 3.9 WNW 15 - 8 - 1007.0 1006.4 0.0
27/11:30am 30.0 32.7 25.0 74 3.5 WNW 20 - 11 - 1007.0 - 0.0
27/11:00am 31.0 34.4 24.0 66 4.9 W 13 - 7 - 1008.0 - 0.0
27/10:30am 31.0 35.0 25.0 70 4.2 WNW 13 - 7 - 1008.0 - 0.0
27/10:00am 31.0 34.8 24.0 66 4.9 WNW 11 - 6 - 1008.0 - 0.0
27/09:30am 31.0 34.8 24.0 66 4.9 W 11 - 6 - 1008.0 - 0.0

Other Formats:

Comma delimited format used in spreadsheet applications
http://www.bom.gov.au/fwo/IDW60801/IDW60801.95101.axf

JavaScript Object Notation format (JSON) in row-major order
http://www.bom.gov.au/fwo/IDW60801/IDW60801.95101.json